createdAt,value
2018-11-25T00:00:24.962Z,4.40
2018-11-25T00:02:53.667Z,4.45
2018-11-25T00:05:22.204Z,4.48
2018-11-25T00:07:50.739Z,4.48
2018-11-25T00:10:19.248Z,4.45
2018-11-25T00:12:47.815Z,4.48
2018-11-25T00:15:16.512Z,4.52
2018-11-25T00:17:45.034Z,4.49
2018-11-25T00:20:14.336Z,4.50
2018-11-25T00:22:43.537Z,4.48
2018-11-25T00:25:13.286Z,4.44
2018-11-25T00:27:41.814Z,4.47
2018-11-25T00:30:13.649Z,4.42
2018-11-25T00:32:42.256Z,4.45
2018-11-25T00:35:11.977Z,4.43
2018-11-25T00:37:47.537Z,4.40
2018-11-25T00:40:10.814Z,4.42
2018-11-25T00:42:39.514Z,4.45
2018-11-25T00:45:12.611Z,4.52
2018-11-25T00:47:41.400Z,4.55
2018-11-25T00:50:11.420Z,4.56
2018-11-25T00:52:40.122Z,4.54
2018-11-25T00:55:10.435Z,4.53
2018-11-25T00:57:39.034Z,4.49
2018-11-25T01:00:14.543Z,4.50
2018-11-25T01:02:43.196Z,4.52
2018-11-25T01:05:12.161Z,4.56
2018-11-25T01:07:40.770Z,4.57
2018-11-25T01:10:10.909Z,4.56
2018-11-25T01:12:39.599Z,4.55
2018-11-25T01:15:11.091Z,4.50
2018-11-25T01:17:39.732Z,4.48
2018-11-25T01:20:10.877Z,4.48
2018-11-25T01:22:39.663Z,4.50
2018-11-25T01:25:09.395Z,4.52
2018-11-25T01:27:38.004Z,4.53
2018-11-25T01:30:10.364Z,4.55
2018-11-25T01:32:38.966Z,4.56
2018-11-25T01:35:08.770Z,4.60
2018-11-25T01:37:37.536Z,4.64
2018-11-25T01:40:09.024Z,4.62
2018-11-25T01:42:38.011Z,4.64
2018-11-25T01:45:07.924Z,4.68
2018-11-25T01:47:36.440Z,4.65
2018-11-25T01:50:06.887Z,4.61
2018-11-25T01:52:35.443Z,4.62
2018-11-25T01:55:04.068Z,4.60
2018-11-25T01:57:32.599Z,4.60
2018-11-25T02:00:01.325Z,4.61
2018-11-25T02:02:29.968Z,4.60
2018-11-25T02:04:58.623Z,4.58
2018-11-25T02:07:27.272Z,4.50
2018-11-25T02:09:55.841Z,4.49
2018-11-25T02:12:24.371Z,4.51
2018-11-25T02:14:53.027Z,4.51
2018-11-25T02:17:21.640Z,4.55
2018-11-25T02:19:50.301Z,4.57
2018-11-25T02:22:18.881Z,4.54
2018-11-25T02:24:47.430Z,4.54
2018-11-25T02:27:15.915Z,4.55
2018-11-25T02:29:44.537Z,4.56
2018-11-25T02:32:13.089Z,4.56
2018-11-25T02:34:41.648Z,4.57
2018-11-25T02:37:10.161Z,4.58
2018-11-25T02:39:38.779Z,4.56
2018-11-25T02:42:07.339Z,4.52
2018-11-25T02:44:35.841Z,4.50
2018-11-25T02:47:04.357Z,4.48
2018-11-25T02:49:32.853Z,4.46
2018-11-25T02:52:01.439Z,4.45
2018-11-25T02:54:30.117Z,4.50
2018-11-25T02:56:58.640Z,4.54
2018-11-25T02:59:27.312Z,4.52
2018-11-25T03:01:55.815Z,4.56
2018-11-25T03:04:24.474Z,4.51
2018-11-25T03:06:53.011Z,4.45
2018-11-25T03:09:21.793Z,4.47
2018-11-25T03:11:50.366Z,4.47
2018-11-25T03:14:19.013Z,4.44
2018-11-25T03:16:47.529Z,4.44
2018-11-25T03:19:16.137Z,4.42
2018-11-25T03:21:44.733Z,4.46
2018-11-25T03:24:13.353Z,4.48
2018-11-25T03:26:41.973Z,4.51
2018-11-25T03:29:10.512Z,4.52
2018-11-25T03:31:39.102Z,4.55
2018-11-25T03:34:07.610Z,4.47
2018-11-25T03:36:36.144Z,4.49
2018-11-25T03:39:06.298Z,4.53
2018-11-25T03:41:34.816Z,4.54
2018-11-25T03:44:03.326Z,4.57
2018-11-25T03:46:31.853Z,4.54
2018-11-25T03:49:00.393Z,4.48
2018-11-25T03:51:29.032Z,4.43
2018-11-25T03:53:57.595Z,4.41
2018-11-25T03:56:26.381Z,4.42
2018-11-25T03:58:54.970Z,4.36
2018-11-25T04:01:23.585Z,4.37
2018-11-25T04:03:52.096Z,4.40
2018-11-25T04:06:20.654Z,4.40
2018-11-25T04:08:49.335Z,4.44
2018-11-25T04:11:17.972Z,4.47
2018-11-25T04:13:46.476Z,4.45
2018-11-25T04:16:15.132Z,4.41
2018-11-25T04:18:43.713Z,4.43
2018-11-25T04:21:15.050Z,4.48
2018-11-25T04:23:44.000Z,4.52
2018-11-25T04:26:12.533Z,4.51
2018-11-25T04:28:41.124Z,4.55
2018-11-25T04:31:09.691Z,4.57
2018-11-25T04:33:38.364Z,4.60
2018-11-25T04:36:06.918Z,4.60
2018-11-25T04:38:35.510Z,4.60
2018-11-25T04:41:04.069Z,4.55
2018-11-25T04:43:32.777Z,4.53
2018-11-25T04:46:01.556Z,4.50
2018-11-25T04:48:30.088Z,4.53
2018-11-25T04:50:58.648Z,4.54
2018-11-25T04:53:27.184Z,4.60
2018-11-25T04:55:55.943Z,4.59
2018-11-25T04:58:24.455Z,4.58
2018-11-25T05:00:53.126Z,4.60
2018-11-25T05:03:21.689Z,4.61
2018-11-25T05:05:50.411Z,4.60
2018-11-25T05:08:19.068Z,4.57
2018-11-25T05:10:47.915Z,4.55
2018-11-25T05:13:16.514Z,4.54
2018-11-25T05:15:45.093Z,4.55
2018-11-25T05:18:13.910Z,4.44
2018-11-25T05:20:42.546Z,4.41
2018-11-25T05:23:11.160Z,4.45
2018-11-25T05:25:39.886Z,4.45
2018-11-25T05:28:08.438Z,4.52
2018-11-25T05:30:36.956Z,4.55
2018-11-25T05:33:05.534Z,4.52
2018-11-25T05:35:34.056Z,4.52
2018-11-25T05:38:02.618Z,4.57
2018-11-25T05:40:31.291Z,4.56
2018-11-25T05:42:59.811Z,4.54
2018-11-25T05:45:28.655Z,4.57
2018-11-25T05:47:57.493Z,4.62
2018-11-25T05:50:26.038Z,4.63
2018-11-25T05:52:54.753Z,4.65
2018-11-25T05:55:23.297Z,4.64
2018-11-25T05:57:52.070Z,4.65
2018-11-25T06:00:32.513Z,4.65
2018-11-25T06:03:01.719Z,4.58
2018-11-25T06:05:30.358Z,4.60
2018-11-25T06:07:58.889Z,4.60
2018-11-25T06:10:27.480Z,4.63
2018-11-25T06:12:56.075Z,4.65
2018-11-25T06:15:24.589Z,4.66
2018-11-25T06:17:53.091Z,4.67
2018-11-25T06:20:21.683Z,4.71
2018-11-25T06:22:50.278Z,4.71
2018-11-25T06:25:20.146Z,4.73
2018-11-25T06:27:48.803Z,4.71
2018-11-25T06:30:19.160Z,4.71
2018-11-25T06:32:47.756Z,4.69
2018-11-25T06:35:17.175Z,4.74
2018-11-25T06:37:45.696Z,4.70
2018-11-25T06:40:16.472Z,4.72
2018-11-25T06:42:45.040Z,4.75
2018-11-25T06:45:15.056Z,4.76
2018-11-25T06:47:43.744Z,4.72
2018-11-25T06:50:12.939Z,4.74
2018-11-25T06:52:41.514Z,4.73
2018-11-25T06:55:12.230Z,4.69
2018-11-25T06:57:40.828Z,4.65
2018-11-25T07:00:15.502Z,4.60
2018-11-25T07:02:44.073Z,4.62
2018-11-25T07:05:12.671Z,4.63
2018-11-25T07:07:41.203Z,4.65
2018-11-25T07:10:11.487Z,4.65
2018-11-25T07:12:40.225Z,4.62
2018-11-25T07:15:13.191Z,4.60
2018-11-25T07:17:41.750Z,4.63
2018-11-25T07:20:11.557Z,4.66
2018-11-25T07:22:40.054Z,4.69
2018-11-25T07:25:13.814Z,4.71
2018-11-25T07:27:42.442Z,4.66
2018-11-25T07:30:27.769Z,4.65
2018-11-25T07:32:56.563Z,4.62
2018-11-25T07:35:26.201Z,4.66
2018-11-25T07:37:54.833Z,4.73
2018-11-25T07:40:24.086Z,4.74
2018-11-25T07:42:52.601Z,4.74
2018-11-25T07:45:29.767Z,4.74
2018-11-25T07:47:50.978Z,4.69
2018-11-25T07:50:19.576Z,4.73
2018-11-25T07:52:48.807Z,4.78
2018-11-25T07:55:18.436Z,4.82
2018-11-25T07:57:47.372Z,4.81
2018-11-25T08:00:17.095Z,4.86
2018-11-25T08:02:45.632Z,4.88
2018-11-25T08:05:15.490Z,4.92
2018-11-25T08:07:43.978Z,4.89
2018-11-25T08:10:15.382Z,4.99
2018-11-25T08:12:44.132Z,4.99
2018-11-25T08:15:14.570Z,5.03
2018-11-25T08:17:43.118Z,5.04
2018-11-25T08:20:13.004Z,5.09
2018-11-25T08:22:41.682Z,5.05
2018-11-25T08:25:14.276Z,5.07
2018-11-25T08:27:42.842Z,4.98
2018-11-25T08:30:14.254Z,5.03
2018-11-25T08:32:42.935Z,5.03
2018-11-25T08:35:12.104Z,4.98
2018-11-25T08:37:40.759Z,5.02
2018-11-25T08:40:14.285Z,5.06
2018-11-25T08:42:42.813Z,4.92
2018-11-25T08:45:12.355Z,4.90
2018-11-25T08:47:40.959Z,4.88
2018-11-25T08:50:18.262Z,4.90
2018-11-25T08:52:48.933Z,4.94
2018-11-25T08:55:24.520Z,5.03
2018-11-25T08:57:53.421Z,5.03
2018-11-25T09:00:23.189Z,5.08
2018-11-25T09:02:52.629Z,5.10
2018-11-25T09:05:21.280Z,5.12
2018-11-25T09:07:49.880Z,5.18
2018-11-25T09:10:19.663Z,5.13
2018-11-25T09:12:56.580Z,5.12
2018-11-25T09:15:27.115Z,5.13
2018-11-25T09:17:55.758Z,5.16
2018-11-25T09:20:24.424Z,5.18
2018-11-25T09:22:53.385Z,5.18
2018-11-25T09:25:23.311Z,5.20
2018-11-25T09:27:52.142Z,5.20
2018-11-25T09:30:23.154Z,5.18
2018-11-25T09:32:51.725Z,5.22
2018-11-25T09:35:20.432Z,5.28
2018-11-25T09:37:49.086Z,5.31
2018-11-25T09:40:22.725Z,5.23
2018-11-25T09:42:51.624Z,5.17
2018-11-25T09:45:20.736Z,5.21
2018-11-25T09:47:49.700Z,5.24
2018-11-25T09:50:20.394Z,5.29
2018-11-25T09:52:48.971Z,5.33
2018-11-25T09:55:19.549Z,5.26
2018-11-25T09:57:55.628Z,5.19
2018-11-25T10:00:27.532Z,5.22
2018-11-25T10:02:56.302Z,5.31
2018-11-25T10:05:24.995Z,5.34
2018-11-25T10:07:53.629Z,5.33
2018-11-25T10:10:23.256Z,5.28
2018-11-25T10:12:52.000Z,5.29
2018-11-25T10:15:21.821Z,5.33
2018-11-25T10:17:50.435Z,5.35
2018-11-25T10:20:21.055Z,5.38
2018-11-25T10:22:49.701Z,5.39
2018-11-25T10:25:18.378Z,5.40
2018-11-25T10:27:47.183Z,5.41
2018-11-25T10:30:21.619Z,5.43
2018-11-25T10:32:55.555Z,5.45
2018-11-25T10:35:24.165Z,5.45
2018-11-25T10:37:52.784Z,5.48
2018-11-25T10:40:22.904Z,5.48
2018-11-25T10:42:51.715Z,5.41
2018-11-25T10:45:22.595Z,5.39
2018-11-25T10:47:51.262Z,5.43
2018-11-25T10:50:20.719Z,5.40
2018-11-25T10:52:49.671Z,5.44
2018-11-25T10:55:19.155Z,5.45
2018-11-25T10:57:49.513Z,5.51
2018-11-25T11:00:34.261Z,5.51
2018-11-25T11:03:08.017Z,5.45
2018-11-25T11:05:42.011Z,5.39
2018-11-25T11:08:10.932Z,5.39
2018-11-25T11:10:39.568Z,5.41
2018-11-25T11:13:08.850Z,5.44
2018-11-25T11:15:37.590Z,5.48
2018-11-25T11:18:06.853Z,5.51
2018-11-25T11:20:35.485Z,5.53
2018-11-25T11:23:04.038Z,5.55
2018-11-25T11:25:32.718Z,5.58
2018-11-25T11:28:01.368Z,5.61
2018-11-25T11:30:29.944Z,5.64
2018-11-25T11:32:58.597Z,5.65
2018-11-25T11:35:27.244Z,5.57
2018-11-25T11:37:55.773Z,5.54
2018-11-25T11:40:24.418Z,5.61
2018-11-25T11:42:53.024Z,5.57
2018-11-25T11:45:21.595Z,5.55
2018-11-25T11:47:50.673Z,5.58
2018-11-25T11:50:20.802Z,5.62
2018-11-25T11:52:49.429Z,5.68
2018-11-25T11:55:18.713Z,5.71
2018-11-25T11:57:48.210Z,5.73
2018-11-25T12:00:25.947Z,5.69
2018-11-25T12:02:54.544Z,5.69
2018-11-25T12:05:23.208Z,5.70
2018-11-25T12:07:51.814Z,5.70
2018-11-25T12:10:20.705Z,5.67
2018-11-25T12:12:49.407Z,5.64
2018-11-25T12:15:29.928Z,5.69
2018-11-25T12:17:51.220Z,5.72
2018-11-25T12:20:21.433Z,5.74
2018-11-25T12:22:51.218Z,5.78
2018-11-25T12:25:19.944Z,5.81
2018-11-25T12:27:49.524Z,5.82
2018-11-25T12:30:18.239Z,5.84
2018-11-25T12:32:48.533Z,5.83
2018-11-25T12:35:18.008Z,5.83
2018-11-25T12:37:46.701Z,5.81
2018-11-25T12:40:18.765Z,5.80
2018-11-25T12:42:48.727Z,5.84
2018-11-25T12:45:18.245Z,5.85
2018-11-25T12:47:46.942Z,5.87
2018-11-25T12:50:21.213Z,5.91
2018-11-25T12:52:49.940Z,5.90
2018-11-25T12:55:19.871Z,5.96
2018-11-25T12:57:48.726Z,5.93
2018-11-25T13:00:25.863Z,5.96
2018-11-25T13:02:55.628Z,5.93
2018-11-25T13:05:24.250Z,5.90
2018-11-25T13:07:53.066Z,5.88
2018-11-25T13:10:21.667Z,5.86
2018-11-25T13:12:50.289Z,5.82
2018-11-25T13:15:18.941Z,5.85
2018-11-25T13:17:48.563Z,5.85
2018-11-25T13:20:17.602Z,5.86
2018-11-25T13:22:46.198Z,5.90
2018-11-25T13:25:16.059Z,5.90
2018-11-25T13:27:44.899Z,5.88
2018-11-25T13:30:20.212Z,5.93
2018-11-25T13:32:48.024Z,5.92
2018-11-25T13:35:16.821Z,5.87
2018-11-25T13:37:45.509Z,5.91
2018-11-25T13:40:15.121Z,5.92
2018-11-25T13:42:43.819Z,5.93
2018-11-25T13:45:12.527Z,5.93
2018-11-25T13:47:41.181Z,5.91
2018-11-25T13:50:12.033Z,5.92
2018-11-25T13:52:40.864Z,5.90
2018-11-25T13:55:14.427Z,5.94
2018-11-25T13:57:43.012Z,5.96
2018-11-25T14:01:17.889Z,5.87
2018-11-25T14:03:46.614Z,5.86
2018-11-25T14:06:15.760Z,5.88
2018-11-25T14:08:46.958Z,5.87
2018-11-25T14:11:15.946Z,5.88
2018-11-25T14:13:45.312Z,5.88
2018-11-25T14:16:16.802Z,5.90
2018-11-25T14:18:45.464Z,5.90
2018-11-25T14:21:15.670Z,5.85
2018-11-25T14:23:43.044Z,5.89
2018-11-25T14:26:16.272Z,5.90
2018-11-25T14:28:45.364Z,5.86
2018-11-25T14:31:13.956Z,5.85
2018-11-25T14:33:42.570Z,5.83
2018-11-25T14:36:11.269Z,5.84
2018-11-25T14:38:40.184Z,5.87
2018-11-25T14:41:08.745Z,5.87
2018-11-25T14:43:37.569Z,5.93
2018-11-25T14:46:06.304Z,5.91
2018-11-25T14:48:34.976Z,5.87
2018-11-25T14:51:03.627Z,5.85
2018-11-25T14:53:32.402Z,5.83
2018-11-25T14:56:01.112Z,5.83
2018-11-25T14:58:29.802Z,5.80
2018-11-25T15:00:58.384Z,5.77
2018-11-25T15:03:27.076Z,5.78
2018-11-25T15:05:55.737Z,5.82
2018-11-25T15:08:25.954Z,5.83
2018-11-25T15:10:54.581Z,5.84
2018-11-25T15:13:23.173Z,5.86
2018-11-25T15:15:51.842Z,5.85
2018-11-25T15:18:20.499Z,5.87
2018-11-25T15:20:49.244Z,5.89
2018-11-25T15:23:17.863Z,5.86
2018-11-25T15:25:48.506Z,5.81
2018-11-25T15:28:17.226Z,5.80
2018-11-25T15:30:45.910Z,5.78
2018-11-25T15:33:14.599Z,5.82
2018-11-25T15:35:43.266Z,5.82
2018-11-25T15:38:11.936Z,5.85
2018-11-25T15:40:41.129Z,5.85
2018-11-25T15:43:11.069Z,5.85
2018-11-25T15:45:39.845Z,5.84
2018-11-25T15:48:17.696Z,5.83
2018-11-25T15:50:46.463Z,5.82
2018-11-25T15:53:15.356Z,5.82
2018-11-25T15:55:45.643Z,5.81
2018-11-25T15:58:14.291Z,5.80
2018-11-25T16:00:44.871Z,5.77
2018-11-25T16:03:14.527Z,5.80
2018-11-25T16:05:45.791Z,5.82
2018-11-25T16:08:14.475Z,5.85
2018-11-25T16:10:43.025Z,5.87
2018-11-25T16:13:11.700Z,5.87
2018-11-25T16:15:40.463Z,5.88
2018-11-25T16:18:09.135Z,5.90
2018-11-25T16:27:24.326Z,5.88
2018-11-25T16:29:53.033Z,5.90
2018-11-25T16:32:21.860Z,5.91
2018-11-25T16:34:50.502Z,5.89
2018-11-25T16:37:19.121Z,5.85
2018-11-25T16:39:47.868Z,5.87
2018-11-25T16:42:16.517Z,5.89
2018-11-25T16:44:45.115Z,5.92
2018-11-25T16:47:13.834Z,5.90
2018-11-25T16:49:42.522Z,5.85
2018-11-25T16:52:11.165Z,5.87
2018-11-25T16:54:39.891Z,5.87
2018-11-25T16:57:08.577Z,5.86
2018-11-25T16:59:37.197Z,5.91
2018-11-25T17:02:05.988Z,5.90
2018-11-25T17:04:34.752Z,5.86
2018-11-25T17:07:03.450Z,5.88
2018-11-25T17:09:32.106Z,5.82
2018-11-25T17:12:00.737Z,5.83
2018-11-25T17:14:33.810Z,5.81
2018-11-25T17:16:58.259Z,5.83
2018-11-25T17:19:26.893Z,5.82
2018-11-25T17:21:55.735Z,5.81
2018-11-25T17:24:24.484Z,5.82
2018-11-25T17:26:53.230Z,5.84
2018-11-25T17:29:21.808Z,5.87
2018-11-25T17:31:50.349Z,5.82
2018-11-25T17:34:19.130Z,5.84
2018-11-25T17:36:48.279Z,5.85
2018-11-25T17:39:17.254Z,5.87
2018-11-25T17:41:46.113Z,5.84
2018-11-25T17:44:14.734Z,5.82
2018-11-25T17:46:43.325Z,5.87
2018-11-25T17:49:12.073Z,5.85
2018-11-25T17:51:40.876Z,5.83
2018-11-25T17:54:09.674Z,5.85
2018-11-25T17:56:39.309Z,5.82
2018-11-25T17:59:08.156Z,5.86
2018-11-25T18:01:36.876Z,5.89
2018-11-25T18:04:05.770Z,5.89
2018-11-25T18:06:34.453Z,5.91
2018-11-25T18:09:03.275Z,5.91
2018-11-25T18:11:32.003Z,5.93
2018-11-25T18:14:00.655Z,5.96
2018-11-25T18:16:29.395Z,5.97
2018-11-25T18:19:09.035Z,5.97
2018-11-25T18:21:37.719Z,5.98
2018-11-25T18:24:06.609Z,5.99
2018-11-25T18:26:35.534Z,6.02
2018-11-25T18:29:05.209Z,5.99
2018-11-25T18:31:34.733Z,6.01
2018-11-25T18:34:03.769Z,6.06
2018-11-25T18:36:32.541Z,6.12
2018-11-25T18:39:02.332Z,6.10
2018-11-25T18:41:30.960Z,6.10
2018-11-25T18:43:59.746Z,6.11
2018-11-25T18:46:28.454Z,6.12
2018-11-25T18:48:57.217Z,6.09
2018-11-25T18:51:25.845Z,6.03
2018-11-25T18:53:54.589Z,6.05
2018-11-25T18:56:23.414Z,6.02
2018-11-25T18:58:52.183Z,6.04
2018-11-25T19:01:32.627Z,6.05
2018-11-25T19:04:01.619Z,5.98
2018-11-25T19:06:30.261Z,5.96
2018-11-25T19:08:58.881Z,5.97
2018-11-25T19:11:27.797Z,5.99
2018-11-25T19:13:56.417Z,6.02
2018-11-25T19:16:25.186Z,6.04
2018-11-25T19:18:53.882Z,6.06
2018-11-25T19:21:22.550Z,6.01
2018-11-25T19:23:51.770Z,5.98
2018-11-25T19:26:20.367Z,5.96
2018-11-25T19:28:48.952Z,5.97
2018-11-25T19:31:17.583Z,5.96
2018-11-25T19:33:46.237Z,5.97
2018-11-25T19:36:14.937Z,6.00
2018-11-25T19:38:44.259Z,6.01
2018-11-25T19:41:12.996Z,6.04
2018-11-25T19:43:41.625Z,6.08
2018-11-25T19:46:11.117Z,6.08
2018-11-25T19:48:39.947Z,6.13
2018-11-25T19:51:16.785Z,6.11
2018-11-25T19:53:37.522Z,6.08
2018-11-25T19:56:06.402Z,6.06
2018-11-25T19:58:35.278Z,6.09
2018-11-25T20:01:04.161Z,6.10
2018-11-25T20:03:32.864Z,6.09
2018-11-25T20:06:01.780Z,6.05
2018-11-25T20:08:30.390Z,6.07
2018-11-25T20:11:00.816Z,6.09
2018-11-25T20:13:29.370Z,6.06
2018-11-25T20:16:03.482Z,6.08
2018-11-25T20:18:32.216Z,6.10
2018-11-25T20:21:06.963Z,6.12
2018-11-25T20:23:35.974Z,6.13
2018-11-25T20:26:04.602Z,6.10
2018-11-25T20:28:33.333Z,6.08
2018-11-25T20:31:02.788Z,6.05
2018-11-25T20:33:36.736Z,5.97
2018-11-25T20:36:05.855Z,6.03
2018-11-25T20:38:39.501Z,6.06
2018-11-25T20:41:08.285Z,6.05
2018-11-25T20:43:36.955Z,6.06
2018-11-25T20:46:11.405Z,6.03
2018-11-25T20:48:40.195Z,5.96
2018-11-25T20:51:08.816Z,5.96
2018-11-25T20:53:42.765Z,5.97
2018-11-25T20:56:11.442Z,6.04
2018-11-25T20:58:40.074Z,6.09
2018-11-25T21:01:08.777Z,6.10
2018-11-25T21:03:37.475Z,6.08
2018-11-25T21:06:06.367Z,6.11
2018-11-25T21:08:35.044Z,6.15
2018-11-25T21:11:03.653Z,6.10
2018-11-25T21:13:32.317Z,6.07
2018-11-25T21:16:00.945Z,6.10
2018-11-25T21:18:29.582Z,6.13
2018-11-25T21:20:58.182Z,6.17
2018-11-25T21:23:26.964Z,6.19
2018-11-25T21:25:55.508Z,6.19
2018-11-25T21:28:24.077Z,6.20
2018-11-25T21:30:52.724Z,6.18
2018-11-25T21:33:21.273Z,6.18
2018-11-25T21:35:49.946Z,6.22
2018-11-25T21:38:18.652Z,6.21
2018-11-25T21:40:47.393Z,6.26
2018-11-25T21:43:16.042Z,6.26
2018-11-25T21:45:44.633Z,6.26
2018-11-25T21:48:14.959Z,6.27
2018-11-25T21:50:43.518Z,6.23
2018-11-25T21:53:12.271Z,6.23
2018-11-25T21:55:40.893Z,6.19
2018-11-25T21:58:09.457Z,6.15
2018-11-25T22:00:38.238Z,6.18
2018-11-25T22:03:06.868Z,6.18
2018-11-25T22:05:35.632Z,6.17
2018-11-25T22:08:04.514Z,6.14
2018-11-25T22:10:33.228Z,6.13
2018-11-25T22:13:03.176Z,6.12
2018-11-25T22:15:32.018Z,6.18
2018-11-25T22:18:00.922Z,6.15
2018-11-25T22:20:29.808Z,6.15
2018-11-25T22:22:58.561Z,6.14
2018-11-25T22:25:27.154Z,6.14
2018-11-25T22:27:55.824Z,6.18
2018-11-25T22:30:25.000Z,6.20
2018-11-25T22:32:53.747Z,6.21
2018-11-25T22:35:23.481Z,6.25
2018-11-25T22:37:52.219Z,6.24
2018-11-25T22:40:21.353Z,6.23
2018-11-25T22:42:51.014Z,6.28
2018-11-25T22:45:23.500Z,6.26
2018-11-25T22:47:52.134Z,6.28
2018-11-25T22:50:25.546Z,6.30
2018-11-25T22:52:50.997Z,6.33
2018-11-25T22:55:21.022Z,6.29
2018-11-25T22:57:49.731Z,6.31
2018-11-25T23:00:36.852Z,6.26
2018-11-25T23:03:05.756Z,6.29
2018-11-25T23:05:45.665Z,6.29
2018-11-25T23:08:14.362Z,6.31
2018-11-25T23:10:42.991Z,6.21
2018-11-25T23:13:11.663Z,6.25
2018-11-25T23:15:40.382Z,6.27
2018-11-25T23:18:09.070Z,6.26
2018-11-25T23:20:37.818Z,6.19
2018-11-25T23:23:07.228Z,6.15
2018-11-25T23:25:35.846Z,6.15
2018-11-25T23:28:04.460Z,6.17
2018-11-25T23:30:33.099Z,6.16
2018-11-25T23:33:01.650Z,6.17
2018-11-25T23:35:31.474Z,6.17
2018-11-25T23:38:00.033Z,6.13
2018-11-25T23:40:28.587Z,6.11
2018-11-25T23:42:57.298Z,6.11
2018-11-25T23:45:25.848Z,6.11
2018-11-25T23:47:54.577Z,6.16
2018-11-25T23:50:23.221Z,6.14
2018-11-25T23:52:51.766Z,6.17
2018-11-25T23:55:20.381Z,6.14
2018-11-25T23:57:49.064Z,6.17
